sensor_id;sensor_type;location;lat;lon;timestamp;temperature;humidity
13606;DHT22;6874;52.084;5.090;2023-05-01T00:01:03;12.60;99.90
13606;DHT22;6874;52.084;5.090;2023-05-01T00:03:30;12.60;99.90
13606;DHT22;6874;52.084;5.090;2023-05-01T00:06:00;12.60;99.90
13606;DHT22;6874;52.084;5.090;2023-05-01T00:08:26;12.60;99.90
13606;DHT22;6874;52.084;5.090;2023-05-01T00:10:53;12.50;99.90
13606;DHT22;6874;52.084;5.090;2023-05-01T00:13:20;12.50;99.90
13606;DHT22;6874;52.084;5.090;2023-05-01T00:15:47;12.50;99.90
13606;DHT22;6874;52.084;5.090;2023-05-01T00:18:13;12.40;99.90
13606;DHT22;6874;52.084;5.090;2023-05-01T00:20:38;12.40;99.90
13606;DHT22;6874;52.084;5.090;2023-05-01T00:23:04;12.40;99.90
13606;DHT22;6874;52.084;5.090;2023-05-01T00:25:31;12.40;99.90
13606;DHT22;6874;52.084;5.090;2023-05-01T00:27:56;12.30;99.90
13606;DHT22;6874;52.084;5.090;2023-05-01T00:30:24;12.30;99.90
13606;DHT22;6874;52.084;5.090;2023-05-01T00:32:49;12.30;99.90
13606;DHT22;6874;52.084;5.090;2023-05-01T00:35:15;12.30;99.90
13606;DHT22;6874;52.084;5.090;2023-05-01T00:37:41;12.20;99.90
13606;DHT22;6874;52.084;5.090;2023-05-01T00:40:07;12.20;99.90
13606;DHT22;6874;52.084;5.090;2023-05-01T00:42:36;12.20;99.90
13606;DHT22;6874;52.084;5.090;2023-05-01T00:45:07;12.10;99.90
13606;DHT22;6874;52.084;5.090;2023-05-01T00:47:34;12.10;99.90
13606;DHT22;6874;52.084;5.090;2023-05-01T00:50:01;12.10;99.90
13606;DHT22;6874;52.084;5.090;2023-05-01T00:52:26;12.10;99.90
13606;DHT22;6874;52.084;5.090;2023-05-01T00:54:53;12.10;99.90
13606;DHT22;6874;52.084;5.090;2023-05-01T00:57:19;12.10;99.90
13606;DHT22;6874;52.084;5.090;2023-05-01T00:59:46;12.00;99.90
13606;DHT22;6874;52.084;5.090;2023-05-01T01:02:12;12.00;99.90
13606;DHT22;6874;52.084;5.090;2023-05-01T01:04:42;12.00;99.90
13606;DHT22;6874;52.084;5.090;2023-05-01T01:09:54;11.90;99.90
13606;DHT22;6874;52.084;5.090;2023-05-01T01:12:43;11.90;99.90
13606;DHT22;6874;52.084;5.090;2023-05-01T01:18:11;11.90;99.90
13606;DHT22;6874;52.084;5.090;2023-05-01T01:20:48;11.90;99.90
13606;DHT22;6874;52.084;5.090;2023-05-01T01:34:49;11.80;99.90
13606;DHT22;6874;52.084;5.090;2023-05-01T01:37:22;11.80;99.90
13606;DHT22;6874;52.084;5.090;2023-05-01T01:42:25;11.70;99.90
13606;DHT22;6874;52.084;5.090;2023-05-01T01:44:54;11.70;99.90
13606;DHT22;6874;52.084;5.090;2023-05-01T01:47:26;11.70;99.90
13606;DHT22;6874;52.084;5.090;2023-05-01T01:49:57;11.70;99.90
13606;DHT22;6874;52.084;5.090;2023-05-01T01:52:24;11.70;99.90
13606;DHT22;6874;52.084;5.090;2023-05-01T01:54:53;11.70;99.90
13606;DHT22;6874;52.084;5.090;2023-05-01T01:57:20;11.60;99.90
13606;DHT22;6874;52.084;5.090;2023-05-01T01:59:49;11.70;99.90
13606;DHT22;6874;52.084;5.090;2023-05-01T02:02:17;11.60;99.90
13606;DHT22;6874;52.084;5.090;2023-05-01T02:04:44;11.60;99.90
13606;DHT22;6874;52.084;5.090;2023-05-01T02:07:12;11.60;99.90
13606;DHT22;6874;52.084;5.090;2023-05-01T02:09:40;11.60;99.90
13606;DHT22;6874;52.084;5.090;2023-05-01T02:12:07;11.60;99.90
13606;DHT22;6874;52.084;5.090;2023-05-01T02:14:34;11.60;99.90
13606;DHT22;6874;52.084;5.090;2023-05-01T02:17:00;11.50;99.90
13606;DHT22;6874;52.084;5.090;2023-05-01T02:19:27;11.50;99.90
13606;DHT22;6874;52.084;5.090;2023-05-01T02:21:55;11.50;99.90
13606;DHT22;6874;52.084;5.090;2023-05-01T02:24:23;11.50;99.90
13606;DHT22;6874;52.084;5.090;2023-05-01T02:26:53;11.50;99.90
13606;DHT22;6874;52.084;5.090;2023-05-01T02:29:20;11.50;99.90
13606;DHT22;6874;52.084;5.090;2023-05-01T02:31:46;11.50;99.90
13606;DHT22;6874;52.084;5.090;2023-05-01T02:34:12;11.50;99.90
13606;DHT22;6874;52.084;5.090;2023-05-01T02:36:37;11.40;99.90
13606;DHT22;6874;52.084;5.090;2023-05-01T02:39:03;11.40;99.90
13606;DHT22;6874;52.084;5.090;2023-05-01T02:41:29;11.40;99.90
13606;DHT22;6874;52.084;5.090;2023-05-01T02:44:00;11.40;99.90
13606;DHT22;6874;52.084;5.090;2023-05-01T02:46:30;11.40;99.90
13606;DHT22;6874;52.084;5.090;2023-05-01T02:48:56;11.40;99.90
13606;DHT22;6874;52.084;5.090;2023-05-01T02:51:24;11.40;99.90
13606;DHT22;6874;52.084;5.090;2023-05-01T02:53:50;11.40;99.90
13606;DHT22;6874;52.084;5.090;2023-05-01T02:56:17;11.40;99.90
13606;DHT22;6874;52.084;5.090;2023-05-01T02:58:42;11.40;99.90
13606;DHT22;6874;52.084;5.090;2023-05-01T03:01:08;11.40;99.90
13606;DHT22;6874;52.084;5.090;2023-05-01T03:03:35;11.30;99.90
13606;DHT22;6874;52.084;5.090;2023-05-01T03:06:01;11.30;99.90
13606;DHT22;6874;52.084;5.090;2023-05-01T03:08:27;11.30;99.90
13606;DHT22;6874;52.084;5.090;2023-05-01T03:10:53;11.30;99.90
13606;DHT22;6874;52.084;5.090;2023-05-01T03:13:18;11.30;99.90
13606;DHT22;6874;52.084;5.090;2023-05-01T03:15:44;11.30;99.90
13606;DHT22;6874;52.084;5.090;2023-05-01T03:18:09;11.30;99.90
13606;DHT22;6874;52.084;5.090;2023-05-01T03:20:35;11.30;99.90
13606;DHT22;6874;52.084;5.090;2023-05-01T03:23:00;11.20;99.90
13606;DHT22;6874;52.084;5.090;2023-05-01T03:25:26;11.30;99.90
13606;DHT22;6874;52.084;5.090;2023-05-01T03:27:52;11.20;99.90
13606;DHT22;6874;52.084;5.090;2023-05-01T03:30:17;11.20;99.90
13606;DHT22;6874;52.084;5.090;2023-05-01T03:32:43;11.20;99.90
13606;DHT22;6874;52.084;5.090;2023-05-01T03:35:09;11.20;99.90
13606;DHT22;6874;52.084;5.090;2023-05-01T03:37:35;11.20;99.90
13606;DHT22;6874;52.084;5.090;2023-05-01T03:40:00;11.20;99.90
13606;DHT22;6874;52.084;5.090;2023-05-01T03:42:26;11.20;99.90
13606;DHT22;6874;52.084;5.090;2023-05-01T03:44:51;11.20;99.90
13606;DHT22;6874;52.084;5.090;2023-05-01T03:47:17;11.20;99.90
13606;DHT22;6874;52.084;5.090;2023-05-01T03:49:43;11.20;99.90
13606;DHT22;6874;52.084;5.090;2023-05-01T03:52:10;11.20;99.90
13606;DHT22;6874;52.084;5.090;2023-05-01T03:54:36;11.20;99.90
13606;DHT22;6874;52.084;5.090;2023-05-01T03:57:03;11.20;99.90
13606;DHT22;6874;52.084;5.090;2023-05-01T03:59:28;11.10;99.90
13606;DHT22;6874;52.084;5.090;2023-05-01T04:01:54;11.10;99.90
13606;DHT22;6874;52.084;5.090;2023-05-01T04:04:20;11.10;99.90
13606;DHT22;6874;52.084;5.090;2023-05-01T04:06:45;11.10;99.90
13606;DHT22;6874;52.084;5.090;2023-05-01T04:09:12;11.10;99.90
13606;DHT22;6874;52.084;5.090;2023-05-01T04:11:38;11.10;99.90
13606;DHT22;6874;52.084;5.090;2023-05-01T04:14:03;11.10;99.90
13606;DHT22;6874;52.084;5.090;2023-05-01T04:16:29;11.00;99.90
13606;DHT22;6874;52.084;5.090;2023-05-01T04:18:55;11.10;99.90
13606;DHT22;6874;52.084;5.090;2023-05-01T04:21:21;11.00;99.90
13606;DHT22;6874;52.084;5.090;2023-05-01T04:23:47;11.00;99.90
13606;DHT22;6874;52.084;5.090;2023-05-01T04:26:12;11.00;99.90
13606;DHT22;6874;52.084;5.090;2023-05-01T04:28:38;11.00;99.90
13606;DHT22;6874;52.084;5.090;2023-05-01T04:31:03;11.00;99.90
13606;DHT22;6874;52.084;5.090;2023-05-01T04:33:29;11.00;99.90
13606;DHT22;6874;52.084;5.090;2023-05-01T04:35:54;11.00;99.90
13606;DHT22;6874;52.084;5.090;2023-05-01T04:38:20;11.00;99.90
13606;DHT22;6874;52.084;5.090;2023-05-01T04:40:45;11.00;99.90
13606;DHT22;6874;52.084;5.090;2023-05-01T04:43:11;11.00;99.90
13606;DHT22;6874;52.084;5.090;2023-05-01T04:45:37;10.90;99.90
13606;DHT22;6874;52.084;5.090;2023-05-01T04:48:03;11.00;99.90
13606;DHT22;6874;52.084;5.090;2023-05-01T04:50:29;11.00;99.90
13606;DHT22;6874;52.084;5.090;2023-05-01T04:52:54;11.00;99.90
13606;DHT22;6874;52.084;5.090;2023-05-01T04:55:20;10.90;99.90
13606;DHT22;6874;52.084;5.090;2023-05-01T04:57:46;10.90;99.90
13606;DHT22;6874;52.084;5.090;2023-05-01T05:00:12;10.90;99.90
13606;DHT22;6874;52.084;5.090;2023-05-01T05:02:37;10.90;99.90
13606;DHT22;6874;52.084;5.090;2023-05-01T05:05:03;10.90;99.90
13606;DHT22;6874;52.084;5.090;2023-05-01T05:07:29;10.90;99.90
13606;DHT22;6874;52.084;5.090;2023-05-01T05:09:54;10.90;99.90
13606;DHT22;6874;52.084;5.090;2023-05-01T05:12:20;10.90;99.90
13606;DHT22;6874;52.084;5.090;2023-05-01T05:14:45;10.90;99.90
13606;DHT22;6874;52.084;5.090;2023-05-01T05:17:12;10.90;99.90
13606;DHT22;6874;52.084;5.090;2023-05-01T05:19:37;10.90;99.90
13606;DHT22;6874;52.084;5.090;2023-05-01T05:22:03;10.90;99.90
13606;DHT22;6874;52.084;5.090;2023-05-01T05:24:29;10.90;99.90
13606;DHT22;6874;52.084;5.090;2023-05-01T05:26:55;10.90;99.90
13606;DHT22;6874;52.084;5.090;2023-05-01T05:29:20;10.90;99.90
13606;DHT22;6874;52.084;5.090;2023-05-01T05:31:46;10.90;99.90
13606;DHT22;6874;52.084;5.090;2023-05-01T05:34:12;10.90;99.90
13606;DHT22;6874;52.084;5.090;2023-05-01T05:36:37;10.90;99.90
13606;DHT22;6874;52.084;5.090;2023-05-01T05:39:03;10.90;99.90
13606;DHT22;6874;52.084;5.090;2023-05-01T05:41:28;10.90;99.90
13606;DHT22;6874;52.084;5.090;2023-05-01T05:43:54;10.90;99.90
13606;DHT22;6874;52.084;5.090;2023-05-01T05:46:19;10.90;99.90
13606;DHT22;6874;52.084;5.090;2023-05-01T05:48:45;10.90;99.90
13606;DHT22;6874;52.084;5.090;2023-05-01T05:51:11;10.90;99.90
13606;DHT22;6874;52.084;5.090;2023-05-01T05:53:37;10.90;99.90
13606;DHT22;6874;52.084;5.090;2023-05-01T05:56:02;10.90;99.90
13606;DHT22;6874;52.084;5.090;2023-05-01T05:58:29;10.90;99.90
13606;DHT22;6874;52.084;5.090;2023-05-01T06:00:54;11.10;99.90
13606;DHT22;6874;52.084;5.090;2023-05-01T06:03:20;10.90;99.90
13606;DHT22;6874;52.084;5.090;2023-05-01T06:05:46;11.00;99.90
13606;DHT22;6874;52.084;5.090;2023-05-01T06:08:12;11.00;99.90
13606;DHT22;6874;52.084;5.090;2023-05-01T06:10:42;11.00;99.90
13606;DHT22;6874;52.084;5.090;2023-05-01T06:13:08;11.00;99.90
13606;DHT22;6874;52.084;5.090;2023-05-01T06:15:37;11.00;99.90
13606;DHT22;6874;52.084;5.090;2023-05-01T06:18:04;11.00;99.90
13606;DHT22;6874;52.084;5.090;2023-05-01T06:20:29;11.00;99.90
13606;DHT22;6874;52.084;5.090;2023-05-01T06:22:55;11.00;99.90
13606;DHT22;6874;52.084;5.090;2023-05-01T06:25:22;11.00;99.90
13606;DHT22;6874;52.084;5.090;2023-05-01T06:27:50;11.00;99.90
13606;DHT22;6874;52.084;5.090;2023-05-01T06:30:16;11.00;99.90
13606;DHT22;6874;52.084;5.090;2023-05-01T06:32:44;11.00;99.90
13606;DHT22;6874;52.084;5.090;2023-05-01T06:35:11;11.00;99.90
13606;DHT22;6874;52.084;5.090;2023-05-01T06:37:36;11.10;99.90
13606;DHT22;6874;52.084;5.090;2023-05-01T06:40:06;11.10;99.90
13606;DHT22;6874;52.084;5.090;2023-05-01T06:42:32;11.10;99.90
13606;DHT22;6874;52.084;5.090;2023-05-01T06:44:57;11.10;99.90
13606;DHT22;6874;52.084;5.090;2023-05-01T06:47:23;11.10;99.90
13606;DHT22;6874;52.084;5.090;2023-05-01T06:49:49;11.10;99.90
13606;DHT22;6874;52.084;5.090;2023-05-01T06:52:14;11.10;99.90
13606;DHT22;6874;52.084;5.090;2023-05-01T06:54:40;11.20;99.90
13606;DHT22;6874;52.084;5.090;2023-05-01T06:57:06;11.20;99.90
13606;DHT22;6874;52.084;5.090;2023-05-01T06:59:31;11.20;99.90
13606;DHT22;6874;52.084;5.090;2023-05-01T07:01:57;11.20;99.90
13606;DHT22;6874;52.084;5.090;2023-05-01T07:04:22;11.20;99.90
13606;DHT22;6874;52.084;5.090;2023-05-01T07:06:48;11.30;99.90
13606;DHT22;6874;52.084;5.090;2023-05-01T07:09:14;11.30;99.90
13606;DHT22;6874;52.084;5.090;2023-05-01T07:11:39;11.30;99.90
13606;DHT22;6874;52.084;5.090;2023-05-01T07:14:06;11.30;99.90
13606;DHT22;6874;52.084;5.090;2023-05-01T07:16:32;11.40;99.90
13606;DHT22;6874;52.084;5.090;2023-05-01T07:18:58;11.40;99.90
13606;DHT22;6874;52.084;5.090;2023-05-01T07:21:23;11.40;99.90
13606;DHT22;6874;52.084;5.090;2023-05-01T07:23:49;11.40;99.90
13606;DHT22;6874;52.084;5.090;2023-05-01T07:26:14;11.50;99.90
13606;DHT22;6874;52.084;5.090;2023-05-01T07:28:40;11.50;99.90
13606;DHT22;6874;52.084;5.090;2023-05-01T07:31:08;11.50;99.90
13606;DHT22;6874;52.084;5.090;2023-05-01T07:33:33;11.50;99.90
13606;DHT22;6874;52.084;5.090;2023-05-01T07:35:59;11.60;99.90
13606;DHT22;6874;52.084;5.090;2023-05-01T07:38:24;11.60;99.90
13606;DHT22;6874;52.084;5.090;2023-05-01T07:40:54;11.60;99.90
13606;DHT22;6874;52.084;5.090;2023-05-01T07:43:21;11.70;99.90
13606;DHT22;6874;52.084;5.090;2023-05-01T07:45:54;11.70;99.90
13606;DHT22;6874;52.084;5.090;2023-05-01T07:48:21;11.70;99.90
13606;DHT22;6874;52.084;5.090;2023-05-01T07:50:47;11.80;99.90
13606;DHT22;6874;52.084;5.090;2023-05-01T07:53:12;11.90;99.90
13606;DHT22;6874;52.084;5.090;2023-05-01T07:55:38;11.90;99.90
13606;DHT22;6874;52.084;5.090;2023-05-01T07:58:03;11.90;99.90
13606;DHT22;6874;52.084;5.090;2023-05-01T08:00:29;11.90;99.90
13606;DHT22;6874;52.084;5.090;2023-05-01T08:02:54;11.90;99.90
13606;DHT22;6874;52.084;5.090;2023-05-01T08:05:20;12.00;99.90
13606;DHT22;6874;52.084;5.090;2023-05-01T08:07:45;12.10;99.90
13606;DHT22;6874;52.084;5.090;2023-05-01T08:10:11;12.10;99.90
13606;DHT22;6874;52.084;5.090;2023-05-01T08:12:36;12.10;99.90
13606;DHT22;6874;52.084;5.090;2023-05-01T08:15:02;12.20;99.90
13606;DHT22;6874;52.084;5.090;2023-05-01T08:17:28;12.20;99.90
13606;DHT22;6874;52.084;5.090;2023-05-01T08:19:54;12.30;99.90
13606;DHT22;6874;52.084;5.090;2023-05-01T08:22:21;12.30;99.90
13606;DHT22;6874;52.084;5.090;2023-05-01T08:24:47;12.40;99.90
13606;DHT22;6874;52.084;5.090;2023-05-01T08:27:14;12.40;99.90
13606;DHT22;6874;52.084;5.090;2023-05-01T08:29:39;12.40;99.90
13606;DHT22;6874;52.084;5.090;2023-05-01T08:32:05;12.50;99.90
13606;DHT22;6874;52.084;5.090;2023-05-01T08:34:30;12.50;99.90
13606;DHT22;6874;52.084;5.090;2023-05-01T08:36:58;12.60;99.90
13606;DHT22;6874;52.084;5.090;2023-05-01T08:39:23;12.60;99.90
13606;DHT22;6874;52.084;5.090;2023-05-01T08:41:49;12.60;99.90
13606;DHT22;6874;52.084;5.090;2023-05-01T08:44:16;12.70;99.90
13606;DHT22;6874;52.084;5.090;2023-05-01T08:46:47;12.80;99.90
13606;DHT22;6874;52.084;5.090;2023-05-01T08:49:15;12.80;99.90
13606;DHT22;6874;52.084;5.090;2023-05-01T08:51:44;12.80;99.90
13606;DHT22;6874;52.084;5.090;2023-05-01T08:54:10;12.90;99.90
13606;DHT22;6874;52.084;5.090;2023-05-01T08:56:37;13.00;99.90
13606;DHT22;6874;52.084;5.090;2023-05-01T08:59:04;13.10;99.90
13606;DHT22;6874;52.084;5.090;2023-05-01T09:01:32;13.10;99.90
13606;DHT22;6874;52.084;5.090;2023-05-01T09:04:01;13.20;99.90
13606;DHT22;6874;52.084;5.090;2023-05-01T09:06:27;13.20;99.90
13606;DHT22;6874;52.084;5.090;2023-05-01T09:08:53;13.30;99.90
13606;DHT22;6874;52.084;5.090;2023-05-01T09:11:21;13.40;99.90
13606;DHT22;6874;52.084;5.090;2023-05-01T09:13:47;13.40;99.90
13606;DHT22;6874;52.084;5.090;2023-05-01T09:16:13;13.50;99.90
13606;DHT22;6874;52.084;5.090;2023-05-01T09:18:38;13.50;99.90
13606;DHT22;6874;52.084;5.090;2023-05-01T09:21:05;13.50;99.90
13606;DHT22;6874;52.084;5.090;2023-05-01T09:23:31;13.60;99.90
13606;DHT22;6874;52.084;5.090;2023-05-01T09:25:58;13.60;99.90
13606;DHT22;6874;52.084;5.090;2023-05-01T09:28:41;13.70;99.90
13606;DHT22;6874;52.084;5.090;2023-05-01T09:36:27;14.00;99.90
13606;DHT22;6874;52.084;5.090;2023-05-01T09:38:54;14.00;99.90
13606;DHT22;6874;52.084;5.090;2023-05-01T09:41:19;14.10;99.90
13606;DHT22;6874;52.084;5.090;2023-05-01T09:43:50;14.20;99.90
13606;DHT22;6874;52.084;5.090;2023-05-01T09:46:16;14.30;99.90
13606;DHT22;6874;52.084;5.090;2023-05-01T09:48:58;14.30;99.90
13606;DHT22;6874;52.084;5.090;2023-05-01T09:51:28;14.40;99.90
13606;DHT22;6874;52.084;5.090;2023-05-01T09:53:56;14.40;99.90
13606;DHT22;6874;52.084;5.090;2023-05-01T09:56:22;14.50;99.90
13606;DHT22;6874;52.084;5.090;2023-05-01T09:58:52;14.60;99.90
13606;DHT22;6874;52.084;5.090;2023-05-01T10:01:35;14.70;99.90
13606;DHT22;6874;52.084;5.090;2023-05-01T10:04:01;14.70;99.90
13606;DHT22;6874;52.084;5.090;2023-05-01T10:06:28;14.80;99.90
13606;DHT22;6874;52.084;5.090;2023-05-01T10:08:53;14.90;99.90
13606;DHT22;6874;52.084;5.090;2023-05-01T10:11:19;14.90;99.90
13606;DHT22;6874;52.084;5.090;2023-05-01T10:13:47;15.00;99.90
13606;DHT22;6874;52.084;5.090;2023-05-01T10:16:29;15.00;99.90
13606;DHT22;6874;52.084;5.090;2023-05-01T10:18:56;15.00;99.90
13606;DHT22;6874;52.084;5.090;2023-05-01T10:21:22;15.10;99.90
13606;DHT22;6874;52.084;5.090;2023-05-01T10:23:48;15.10;99.90
13606;DHT22;6874;52.084;5.090;2023-05-01T10:26:13;15.10;99.90
13606;DHT22;6874;52.084;5.090;2023-05-01T10:28:41;15.20;99.90
13606;DHT22;6874;52.084;5.090;2023-05-01T10:31:09;15.20;99.90
13606;DHT22;6874;52.084;5.090;2023-05-01T10:33:38;15.20;99.90
13606;DHT22;6874;52.084;5.090;2023-05-01T10:36:04;15.20;99.90
13606;DHT22;6874;52.084;5.090;2023-05-01T10:38:33;15.30;99.90
13606;DHT22;6874;52.084;5.090;2023-05-01T10:41:02;15.30;99.90
13606;DHT22;6874;52.084;5.090;2023-05-01T10:43:29;15.30;99.90
13606;DHT22;6874;52.084;5.090;2023-05-01T10:51:11;15.30;99.90
13606;DHT22;6874;52.084;5.090;2023-05-01T10:53:38;15.40;99.90
13606;DHT22;6874;52.084;5.090;2023-05-01T10:56:04;15.40;99.90
13606;DHT22;6874;52.084;5.090;2023-05-01T11:01:28;15.40;99.90
13606;DHT22;6874;52.084;5.090;2023-05-01T11:03:55;15.40;99.90
13606;DHT22;6874;52.084;5.090;2023-05-01T11:06:21;15.50;99.90
13606;DHT22;6874;52.084;5.090;2023-05-01T11:08:47;15.50;99.90
13606;DHT22;6874;52.084;5.090;2023-05-01T11:14:07;15.60;99.90
13606;DHT22;6874;52.084;5.090;2023-05-01T11:21:53;15.70;99.90
13606;DHT22;6874;52.084;5.090;2023-05-01T11:24:20;15.70;99.90
13606;DHT22;6874;52.084;5.090;2023-05-01T11:26:55;15.70;99.90
13606;DHT22;6874;52.084;5.090;2023-05-01T11:29:21;15.80;99.90
13606;DHT22;6874;52.084;5.090;2023-05-01T11:31:47;15.80;99.90
13606;DHT22;6874;52.084;5.090;2023-05-01T11:34:13;15.80;99.90
13606;DHT22;6874;52.084;5.090;2023-05-01T11:36:47;15.80;99.90
13606;DHT22;6874;52.084;5.090;2023-05-01T11:39:16;15.80;99.90
13606;DHT22;6874;52.084;5.090;2023-05-01T11:41:42;15.80;99.90
13606;DHT22;6874;52.084;5.090;2023-05-01T11:44:11;15.80;99.90
13606;DHT22;6874;52.084;5.090;2023-05-01T11:46:36;15.80;99.90
13606;DHT22;6874;52.084;5.090;2023-05-01T11:49:02;15.80;99.90
13606;DHT22;6874;52.084;5.090;2023-05-01T11:51:29;15.80;99.90
13606;DHT22;6874;52.084;5.090;2023-05-01T11:56:26;15.80;99.90
13606;DHT22;6874;52.084;5.090;2023-05-01T11:58:56;15.70;99.90
13606;DHT22;6874;52.084;5.090;2023-05-01T12:01:35;15.70;99.90
13606;DHT22;6874;52.084;5.090;2023-05-01T12:04:02;15.70;99.90
13606;DHT22;6874;52.084;5.090;2023-05-01T12:06:41;15.70;99.90
13606;DHT22;6874;52.084;5.090;2023-05-01T12:09:16;15.60;99.90
13606;DHT22;6874;52.084;5.090;2023-05-01T12:11:43;15.60;99.90
13606;DHT22;6874;52.084;5.090;2023-05-01T12:14:10;15.60;99.90
13606;DHT22;6874;52.084;5.090;2023-05-01T12:16:37;15.50;99.90
13606;DHT22;6874;52.084;5.090;2023-05-01T12:19:05;15.50;99.90
13606;DHT22;6874;52.084;5.090;2023-05-01T12:21:31;15.50;99.90
13606;DHT22;6874;52.084;5.090;2023-05-01T12:24:13;15.50;99.90
13606;DHT22;6874;52.084;5.090;2023-05-01T12:26:42;15.40;99.90
13606;DHT22;6874;52.084;5.090;2023-05-01T12:29:08;15.40;99.90
13606;DHT22;6874;52.084;5.090;2023-05-01T12:31:35;15.40;99.90
13606;DHT22;6874;52.084;5.090;2023-05-01T12:34:04;15.40;99.90
13606;DHT22;6874;52.084;5.090;2023-05-01T12:36:33;15.30;99.90
13606;DHT22;6874;52.084;5.090;2023-05-01T12:39:09;15.30;99.90
13606;DHT22;6874;52.084;5.090;2023-05-01T12:41:49;15.30;99.90
13606;DHT22;6874;52.084;5.090;2023-05-01T12:44:22;15.30;99.90
13606;DHT22;6874;52.084;5.090;2023-05-01T12:46:59;15.30;99.90
13606;DHT22;6874;52.084;5.090;2023-05-01T12:49:26;15.30;99.90
13606;DHT22;6874;52.084;5.090;2023-05-01T12:51:54;15.30;99.90
13606;DHT22;6874;52.084;5.090;2023-05-01T12:54:27;15.20;99.90
13606;DHT22;6874;52.084;5.090;2023-05-01T12:57:21;15.20;99.90
13606;DHT22;6874;52.084;5.090;2023-05-01T12:59:47;15.20;99.90
13606;DHT22;6874;52.084;5.090;2023-05-01T13:02:28;15.20;99.90
13606;DHT22;6874;52.084;5.090;2023-05-01T13:05:05;15.20;99.90
13606;DHT22;6874;52.084;5.090;2023-05-01T13:07:31;15.20;99.90
13606;DHT22;6874;52.084;5.090;2023-05-01T13:09:57;15.20;99.90
13606;DHT22;6874;52.084;5.090;2023-05-01T13:12:25;15.20;99.90
13606;DHT22;6874;52.084;5.090;2023-05-01T13:14:51;15.20;99.90
13606;DHT22;6874;52.084;5.090;2023-05-01T13:17:25;15.30;99.90
13606;DHT22;6874;52.084;5.090;2023-05-01T13:19:56;15.20;99.90
13606;DHT22;6874;52.084;5.090;2023-05-01T13:24:54;15.30;99.90
13606;DHT22;6874;52.084;5.090;2023-05-01T13:27:21;15.30;99.90
13606;DHT22;6874;52.084;5.090;2023-05-01T13:29:52;15.40;99.90
13606;DHT22;6874;52.084;5.090;2023-05-01T13:32:19;15.40;99.90
13606;DHT22;6874;52.084;5.090;2023-05-01T13:34:45;15.50;99.90
13606;DHT22;6874;52.084;5.090;2023-05-01T13:37:11;15.50;99.90
13606;DHT22;6874;52.084;5.090;2023-05-01T13:39:40;15.60;99.90
13606;DHT22;6874;52.084;5.090;2023-05-01T13:42:07;15.60;99.90
13606;DHT22;6874;52.084;5.090;2023-05-01T13:44:42;15.60;99.90
13606;DHT22;6874;52.084;5.090;2023-05-01T13:47:10;15.70;99.90
13606;DHT22;6874;52.084;5.090;2023-05-01T13:49:40;15.80;99.90
13606;DHT22;6874;52.084;5.090;2023-05-01T13:52:06;15.90;99.90
13606;DHT22;6874;52.084;5.090;2023-05-01T13:54:32;15.90;99.90
13606;DHT22;6874;52.084;5.090;2023-05-01T13:56:59;16.00;99.90
13606;DHT22;6874;52.084;5.090;2023-05-01T13:59:31;16.00;99.90
13606;DHT22;6874;52.084;5.090;2023-05-01T14:02:01;16.10;99.90
13606;DHT22;6874;52.084;5.090;2023-05-01T14:04:39;16.20;99.90
13606;DHT22;6874;52.084;5.090;2023-05-01T14:07:05;16.30;99.90
13606;DHT22;6874;52.084;5.090;2023-05-01T14:09:34;16.30;99.90
13606;DHT22;6874;52.084;5.090;2023-05-01T14:12:00;16.40;99.90
13606;DHT22;6874;52.084;5.090;2023-05-01T14:14:26;16.50;99.90
13606;DHT22;6874;52.084;5.090;2023-05-01T14:16:52;16.50;99.90
13606;DHT22;6874;52.084;5.090;2023-05-01T14:19:18;16.70;99.90
13606;DHT22;6874;52.084;5.090;2023-05-01T14:21:44;16.70;99.90
13606;DHT22;6874;52.084;5.090;2023-05-01T14:24:10;16.80;99.90
13606;DHT22;6874;52.084;5.090;2023-05-01T14:26:41;16.90;99.90
13606;DHT22;6874;52.084;5.090;2023-05-01T14:29:20;17.00;99.90
13606;DHT22;6874;52.084;5.090;2023-05-01T14:31:46;17.10;99.90
13606;DHT22;6874;52.084;5.090;2023-05-01T14:34:14;17.10;99.90
13606;DHT22;6874;52.084;5.090;2023-05-01T14:36:41;17.10;99.90
13606;DHT22;6874;52.084;5.090;2023-05-01T14:39:08;17.20;99.90
13606;DHT22;6874;52.084;5.090;2023-05-01T14:41:33;17.30;99.90
13606;DHT22;6874;52.084;5.090;2023-05-01T14:44:03;17.30;99.90
13606;DHT22;6874;52.084;5.090;2023-05-01T14:46:34;17.30;99.90
13606;DHT22;6874;52.084;5.090;2023-05-01T14:49:01;17.40;99.90
13606;DHT22;6874;52.084;5.090;2023-05-01T14:51:27;17.40;99.90
13606;DHT22;6874;52.084;5.090;2023-05-01T14:53:53;17.40;99.90
13606;DHT22;6874;52.084;5.090;2023-05-01T14:56:19;17.40;99.90
13606;DHT22;6874;52.084;5.090;2023-05-01T14:58:45;17.40;99.90
13606;DHT22;6874;52.084;5.090;2023-05-01T15:01:12;17.50;99.90
13606;DHT22;6874;52.084;5.090;2023-05-01T15:03:37;17.50;99.90
13606;DHT22;6874;52.084;5.090;2023-05-01T15:06:06;17.60;99.90
13606;DHT22;6874;52.084;5.090;2023-05-01T15:08:33;17.60;99.90
13606;DHT22;6874;52.084;5.090;2023-05-01T15:10:58;17.60;99.90
13606;DHT22;6874;52.084;5.090;2023-05-01T15:13:24;17.70;99.90
13606;DHT22;6874;52.084;5.090;2023-05-01T15:15:50;17.70;99.90
13606;DHT22;6874;52.084;5.090;2023-05-01T15:18:17;17.80;99.90
13606;DHT22;6874;52.084;5.090;2023-05-01T15:20:42;17.90;99.90
13606;DHT22;6874;52.084;5.090;2023-05-01T15:23:08;17.90;99.90
13606;DHT22;6874;52.084;5.090;2023-05-01T15:25:35;17.90;99.90
13606;DHT22;6874;52.084;5.090;2023-05-01T15:28:01;17.90;99.90
13606;DHT22;6874;52.084;5.090;2023-05-01T15:30:27;18.00;99.90
13606;DHT22;6874;52.084;5.090;2023-05-01T15:32:53;18.00;99.90
13606;DHT22;6874;52.084;5.090;2023-05-01T15:35:20;18.00;99.90
13606;DHT22;6874;52.084;5.090;2023-05-01T15:37:45;18.10;99.90
13606;DHT22;6874;52.084;5.090;2023-05-01T15:40:11;18.10;99.90
13606;DHT22;6874;52.084;5.090;2023-05-01T15:42:37;18.10;99.90
13606;DHT22;6874;52.084;5.090;2023-05-01T15:45:03;18.10;99.90
13606;DHT22;6874;52.084;5.090;2023-05-01T15:47:30;18.20;99.90
13606;DHT22;6874;52.084;5.090;2023-05-01T15:49:55;18.20;99.90
13606;DHT22;6874;52.084;5.090;2023-05-01T15:52:21;18.20;99.90
13606;DHT22;6874;52.084;5.090;2023-05-01T15:54:46;18.20;99.90
13606;DHT22;6874;52.084;5.090;2023-05-01T15:57:13;18.20;99.90
13606;DHT22;6874;52.084;5.090;2023-05-01T15:59:39;18.20;99.90
13606;DHT22;6874;52.084;5.090;2023-05-01T16:02:05;18.20;99.90
13606;DHT22;6874;52.084;5.090;2023-05-01T16:04:33;18.20;99.90
13606;DHT22;6874;52.084;5.090;2023-05-01T16:07:01;18.10;99.90
13606;DHT22;6874;52.084;5.090;2023-05-01T16:09:29;18.10;99.90
13606;DHT22;6874;52.084;5.090;2023-05-01T16:11:56;18.10;99.90
13606;DHT22;6874;52.084;5.090;2023-05-01T16:14:21;18.10;99.90
13606;DHT22;6874;52.084;5.090;2023-05-01T16:16:47;18.00;99.90
13606;DHT22;6874;52.084;5.090;2023-05-01T16:19:14;18.10;99.90
13606;DHT22;6874;52.084;5.090;2023-05-01T16:21:41;18.10;99.90
13606;DHT22;6874;52.084;5.090;2023-05-01T16:24:06;18.10;99.90
13606;DHT22;6874;52.084;5.090;2023-05-01T16:26:32;18.10;99.90
13606;DHT22;6874;52.084;5.090;2023-05-01T16:28:59;18.10;99.90
13606;DHT22;6874;52.084;5.090;2023-05-01T16:31:25;18.10;99.90